CheckWX is a tool to help pilots better visualize weather data.  It is not intended as a substitute for an official pre-flight weather briefing.

21:13:35 UTC

KHKA METAR
Blytheville Municipal Airport
Blytheville, Arkansas, USA
Current

21 mins ago

KHKA 202053Z AUTO 32010G17KT 10SM CLR 22/04 A2990 RMK AO2 SLP123 T02170039 56006 $
Observed
Apr-20 @ 20:53 UTC
Wind
  • 320° at 10 KTS
  • Gusting to 17 KTS
Visibility
10 SM
Flight Rules
VFR
Cloud Levels
  • Clear skies
Temperature
22°C / 72°F
Dewpoint
C / 39°F
Humidity
31%
Altimeter
29.9" Hg
Pressure
1012.52 hPa
Previous

1 hour ago

KHKA 201953Z AUTO 32014G19KT 10SM CLR 21/04 A2990 RMK AO2 SLP125 T02110044 $
Observed
Apr-20 @ 19:53 UTC
Wind
  • 320° at 14 KTS
  • Gusting to 19 KTS
Visibility
10 SM
Flight Rules
VFR
Cloud Levels
  • Clear skies
Temperature
21°C / 70°F
Dewpoint
C / 39°F
Humidity
33%
Altimeter
29.9" Hg
Pressure
1012.52 hPa
Previous

2 hours ago

KHKA 201853Z AUTO 33013KT 10SM CLR 21/04 A2991 RMK AO2 SLP127 T02060044 $
Observed
Apr-20 @ 18:53 UTC
Wind
  • 330° at 13 KTS
Visibility
10 SM
Flight Rules
VFR
Cloud Levels
  • Clear skies
Temperature
21°C / 70°F
Dewpoint
C / 39°F
Humidity
33%
Altimeter
29.91" Hg
Pressure
1012.92 hPa